Terminal Aerodrome Forecast
Issued by NWS

Home | Current Version | Previous Version | Text Only | Print | Product List | Glossary On
Versions: 1 2 3 4 5 6 7 8 9 10 11 12 13 14 15 16 17 18 19 20 21 22 23 24 25 26 27 28 29 30 31 32 33 34 35 36 37 38 39 40 41 42
057
FTAK31 PANC 212331
TAFAEN
TAF
PAEN 212331Z 2200/2224 03011KT P6SM SCT100 BKN200
     FM220500 02010G18KT 4SM -SN BKN030 OVC050
     FM220800 01015G22KT 1SM -SN BKN008 OVC015
     FM221600 07007KT 5SM -SHSN BKN015 OVC025
     FM222100 VRB04KT P6SM VCSH BKN040=

USA.gov is the U.S. government's official web portal to all federal, state and local government web resources and services.